createdAt,value
2017-01-10T00:00:57.150Z,1004.38
2017-01-10T00:01:57.161Z,1004.39
2017-01-10T00:02:57.174Z,1004.41
2017-01-10T00:03:57.183Z,1004.39
2017-01-10T00:04:57.193Z,1004.36
2017-01-10T00:05:57.204Z,1004.38
2017-01-10T00:06:57.215Z,1004.36
2017-01-10T00:07:57.231Z,1004.37
2017-01-10T00:08:57.237Z,1004.42
2017-01-10T00:09:57.248Z,1004.39
2017-01-10T00:10:57.258Z,1004.42
2017-01-10T00:11:57.269Z,1004.4
2017-01-10T00:12:57.279Z,1004.4
2017-01-10T00:13:57.290Z,1004.36
2017-01-10T00:14:57.301Z,1004.37
2017-01-10T00:15:57.312Z,1004.28
2017-01-10T00:16:57.324Z,1004.28
2017-01-10T00:17:57.332Z,1004.27
2017-01-10T00:18:57.341Z,1004.26
2017-01-10T00:19:57.352Z,1004.22
2017-01-10T00:20:57.364Z,1004.23
2017-01-10T00:21:57.373Z,1004.2
2017-01-10T00:22:57.384Z,1004.17
2017-01-10T00:23:57.394Z,1004.13
2017-01-10T00:24:57.405Z,1004.13
2017-01-10T00:25:57.415Z,1004.1
2017-01-10T00:26:57.426Z,1004.11
2017-01-10T00:27:57.436Z,1004.05
2017-01-10T00:28:57.447Z,1004.04
2017-01-10T00:29:57.459Z,1003.98
2017-01-10T00:30:57.469Z,1004.02
2017-01-10T00:31:57.479Z,1003.96
2017-01-10T00:32:57.489Z,1003.95
2017-01-10T00:33:57.499Z,1003.95
2017-01-10T00:34:57.510Z,1003.91
2017-01-10T00:35:57.521Z,1003.91
2017-01-10T00:36:57.531Z,1003.89
2017-01-10T00:37:57.541Z,1003.89
2017-01-10T00:38:57.552Z,1003.87
2017-01-10T00:39:57.562Z,1003.81
2017-01-10T00:40:57.574Z,1003.78
2017-01-10T00:41:57.584Z,1003.75
2017-01-10T00:42:57.594Z,1003.74
2017-01-10T00:43:57.609Z,1003.76
2017-01-10T00:44:57.617Z,1003.74
2017-01-10T00:45:57.627Z,1003.73
2017-01-10T00:46:57.637Z,1003.66
2017-01-10T00:47:57.647Z,1003.67
2017-01-10T00:48:57.667Z,1003.66
2017-01-10T00:49:57.669Z,1003.62
2017-01-10T00:50:57.681Z,1003.58
2017-01-10T00:51:57.690Z,1003.55
2017-01-10T00:52:57.702Z,1003.56
2017-01-10T00:53:57.713Z,1003.5
2017-01-10T00:54:57.720Z,1003.54
2017-01-10T00:55:57.731Z,1003.52
2017-01-10T00:56:57.744Z,1003.48
2017-01-10T00:57:57.754Z,1003.48
2017-01-10T00:58:57.763Z,1003.43
2017-01-10T00:59:57.774Z,1003.48
2017-01-10T01:00:57.784Z,1003.4
2017-01-10T01:01:57.794Z,1003.45
2017-01-10T01:02:57.805Z,1003.44
2017-01-10T01:03:57.817Z,1003.43
2017-01-10T01:04:57.827Z,1003.38
2017-01-10T01:05:57.837Z,1003.37
2017-01-10T01:06:57.848Z,1003.27
2017-01-10T01:07:57.858Z,1003.28
2017-01-10T01:08:57.871Z,1003.3
2017-01-10T01:09:57.879Z,1003.27
2017-01-10T01:10:57.890Z,1003.23
2017-01-10T01:11:57.901Z,1003.22
2017-01-10T01:12:57.911Z,1003.21
2017-01-10T01:13:57.922Z,1003.19
2017-01-10T01:14:57.933Z,1003.19
2017-01-10T01:15:57.943Z,1003.19
2017-01-10T01:16:57.953Z,1003.2
2017-01-10T01:17:57.965Z,1003.21
2017-01-10T01:18:57.974Z,1003.19
2017-01-10T01:20:04.255Z,1003.15
2017-01-10T01:20:57.997Z,1003.11
2017-01-10T01:21:58.007Z,1003.1
2017-01-10T01:22:58.017Z,1003.05
2017-01-10T01:23:58.029Z,1003.04
2017-01-10T01:24:58.042Z,1002.99
2017-01-10T01:25:58.049Z,1002.99
2017-01-10T01:26:58.060Z,1002.98
2017-01-10T01:27:58.070Z,1002.96
2017-01-10T01:28:58.081Z,1003.01
2017-01-10T01:29:58.091Z,1002.95
2017-01-10T01:30:58.102Z,1002.99
2017-01-10T01:31:58.112Z,1002.96
2017-01-10T01:32:58.123Z,1002.89
2017-01-10T01:33:58.134Z,1002.92
2017-01-10T01:34:58.144Z,1002.86
2017-01-10T01:35:58.153Z,1002.91
2017-01-10T01:36:58.166Z,1002.89
2017-01-10T01:37:58.177Z,1002.86
2017-01-10T01:38:58.185Z,1002.87
2017-01-10T01:39:58.196Z,1002.85
2017-01-10T01:40:58.208Z,1002.87
2017-01-10T01:41:58.221Z,1002.84
2017-01-10T01:42:58.229Z,1002.9
2017-01-10T01:43:58.240Z,1002.86
2017-01-10T01:44:58.250Z,1002.85
2017-01-10T01:45:58.261Z,1002.86
2017-01-10T01:46:58.274Z,1002.8
2017-01-10T01:47:58.284Z,1002.86
2017-01-10T01:48:58.293Z,1002.82
2017-01-10T01:49:58.303Z,1002.86
2017-01-10T01:50:58.313Z,1002.87
2017-01-10T01:51:58.325Z,1002.85
2017-01-10T01:52:58.333Z,1002.85
2017-01-10T01:53:58.345Z,1002.86
2017-01-10T01:54:58.356Z,1002.85
2017-01-10T01:55:58.367Z,1002.85
2017-01-10T01:56:58.380Z,1002.85
2017-01-10T01:57:58.387Z,1002.85
2017-01-10T01:58:58.400Z,1002.76
2017-01-10T01:59:58.409Z,1002.78
2017-01-10T02:00:58.418Z,1002.74
2017-01-10T02:01:58.429Z,1002.69
2017-01-10T02:02:58.440Z,1002.68
2017-01-10T02:03:58.450Z,1002.68
2017-01-10T02:04:58.461Z,1002.66
2017-01-10T02:05:58.471Z,1002.66
2017-01-10T02:06:58.483Z,1002.63
2017-01-10T02:07:58.491Z,1002.6
2017-01-10T02:08:58.502Z,1002.6
2017-01-10T02:09:58.513Z,1002.62
2017-01-10T02:10:58.524Z,1002.64
2017-01-10T02:11:58.535Z,1002.57
2017-01-10T02:12:58.546Z,1002.59
2017-01-10T02:13:58.579Z,1002.58
2017-01-10T02:14:58.565Z,1002.6
2017-01-10T02:15:58.575Z,1002.56
2017-01-10T02:16:58.587Z,1002.58
2017-01-10T02:17:58.597Z,1002.56
2017-01-10T02:18:58.609Z,1002.56
2017-01-10T02:19:58.642Z,1002.59
2017-01-10T02:20:58.631Z,1002.55
2017-01-10T02:21:58.640Z,1002.55
2017-01-10T02:22:58.649Z,1002.51
2017-01-10T02:23:58.659Z,1002.49
2017-01-10T02:24:58.686Z,1002.42
2017-01-10T02:25:58.687Z,1002.38
2017-01-10T02:26:58.691Z,1002.37
2017-01-10T02:27:58.708Z,1002.36
2017-01-10T02:28:58.713Z,1002.39
2017-01-10T02:29:58.723Z,1002.37
2017-01-10T02:30:58.736Z,1002.39
2017-01-10T02:31:58.743Z,1002.35
2017-01-10T02:32:58.761Z,1002.33
2017-01-10T02:33:58.765Z,1002.29
2017-01-10T02:34:58.776Z,1002.29
2017-01-10T02:35:58.787Z,1002.24
2017-01-10T02:36:58.798Z,1002.25
2017-01-10T02:37:58.807Z,1002.17
2017-01-10T02:38:58.818Z,1002.18
2017-01-10T02:39:58.831Z,1002.16
2017-01-10T02:40:58.838Z,1002.13
2017-01-10T02:41:58.849Z,1002.13
2017-01-10T02:42:58.860Z,1002.1
2017-01-10T02:43:58.871Z,1002.05
2017-01-10T02:44:58.879Z,1002.07
2017-01-10T02:45:58.897Z,1002.05
2017-01-10T02:46:58.903Z,1002.04
2017-01-10T02:47:58.912Z,1002
2017-01-10T02:48:58.923Z,1002.01
2017-01-10T02:49:58.933Z,1002.02
2017-01-10T02:50:58.945Z,1002
2017-01-10T02:51:58.954Z,1001.96
2017-01-10T02:52:58.964Z,1001.94
2017-01-10T02:53:58.975Z,1001.95
2017-01-10T02:54:58.985Z,1001.93
2017-01-10T02:55:58.997Z,1001.95
2017-01-10T02:56:59.006Z,1001.94
2017-01-10T02:57:59.016Z,1001.95
2017-01-10T02:58:59.026Z,1001.96
2017-01-10T02:59:59.038Z,1001.95
2017-01-10T03:00:59.049Z,1001.94
2017-01-10T03:01:59.057Z,1001.92
2017-01-10T03:02:59.067Z,1001.92
2017-01-10T03:03:59.079Z,1001.91
2017-01-10T03:04:59.094Z,1001.94
2017-01-10T03:05:59.101Z,1001.95
2017-01-10T03:06:59.109Z,1001.96
2017-01-10T03:07:59.122Z,1001.94
2017-01-10T03:08:59.131Z,1001.93
2017-01-10T03:09:59.140Z,1001.97
2017-01-10T03:10:59.153Z,1001.91
2017-01-10T03:11:59.161Z,1001.9
2017-01-10T03:12:59.172Z,1001.9
2017-01-10T03:13:59.184Z,1001.94
2017-01-10T03:14:59.193Z,1001.95
2017-01-10T03:15:59.203Z,1001.94
2017-01-10T03:16:59.215Z,1001.91
2017-01-10T03:17:59.226Z,1001.87
2017-01-10T03:18:59.236Z,1001.85
2017-01-10T03:19:59.249Z,1001.91
2017-01-10T03:20:59.257Z,1001.92
2017-01-10T03:21:59.267Z,1001.89
2017-01-10T03:22:59.277Z,1001.85
2017-01-10T03:23:59.291Z,1001.84
2017-01-10T03:24:59.300Z,1001.75
2017-01-10T03:25:59.309Z,1001.7
2017-01-10T03:26:59.318Z,1001.7
2017-01-10T03:27:59.329Z,1001.72
2017-01-10T03:28:59.342Z,1001.65
2017-01-10T03:29:59.351Z,1001.65
2017-01-10T03:30:59.360Z,1001.65
2017-01-10T03:31:59.371Z,1001.65
2017-01-10T03:32:59.382Z,1001.6
2017-01-10T03:33:59.393Z,1001.6
2017-01-10T03:34:59.406Z,1001.62
2017-01-10T03:35:59.413Z,1001.61
2017-01-10T03:36:59.424Z,1001.56
2017-01-10T03:37:59.435Z,1001.53
2017-01-10T03:38:59.443Z,1001.53
2017-01-10T03:39:59.456Z,1001.42
2017-01-10T03:40:59.465Z,1001.48
2017-01-10T03:41:59.477Z,1001.44
2017-01-10T03:42:59.486Z,1001.44
2017-01-10T03:43:59.497Z,1001.42
2017-01-10T03:44:59.507Z,1001.4
2017-01-10T03:45:59.522Z,1001.45
2017-01-10T03:46:59.530Z,1001.39
2017-01-10T03:47:59.539Z,1001.42
2017-01-10T03:48:59.549Z,1001.41
2017-01-10T03:49:59.560Z,1001.39
2017-01-10T03:50:59.575Z,1001.3
2017-01-10T03:51:59.581Z,1001.28
2017-01-10T03:52:59.591Z,1001.34
2017-01-10T03:53:59.604Z,1001.3
2017-01-10T03:54:59.612Z,1001.3
2017-01-10T03:55:59.623Z,1001.3
2017-01-10T03:56:59.633Z,1001.28
2017-01-10T03:57:59.643Z,1001.31
2017-01-10T03:58:59.656Z,1001.28
2017-01-10T03:59:59.664Z,1001.32
2017-01-10T04:00:59.675Z,1001.29
2017-01-10T04:01:59.684Z,1001.31
2017-01-10T04:02:59.695Z,1001.25
2017-01-10T04:03:59.707Z,1001.25
2017-01-10T04:04:59.714Z,1001.17
2017-01-10T04:05:59.725Z,1001.21
2017-01-10T04:06:59.738Z,1001.2
2017-01-10T04:07:59.747Z,1001.16
2017-01-10T04:08:59.756Z,1001.16
2017-01-10T04:09:59.767Z,1001.13
2017-01-10T04:10:59.778Z,1001.04
2017-01-10T04:11:59.787Z,1001.1
2017-01-10T04:12:59.799Z,1001.07
2017-01-10T04:13:59.808Z,1001.03
2017-01-10T04:14:59.820Z,1001.02
2017-01-10T04:15:59.829Z,1000.98
2017-01-10T04:16:59.838Z,1001
2017-01-10T04:17:59.851Z,1001
2017-01-10T04:18:59.860Z,1000.99
2017-01-10T04:19:59.869Z,1000.97
2017-01-10T04:20:59.881Z,1000.98
2017-01-10T04:21:59.891Z,1000.9
2017-01-10T04:22:59.900Z,1000.88
2017-01-10T04:23:59.911Z,1000.92
2017-01-10T04:24:59.922Z,1000.87
2017-01-10T04:25:59.932Z,1000.89
2017-01-10T04:26:59.943Z,1000.89
2017-01-10T04:27:59.952Z,1000.87
2017-01-10T04:28:59.970Z,1000.89
2017-01-10T04:29:59.975Z,1000.88
2017-01-10T04:30:59.982Z,1000.89
2017-01-10T04:31:59.994Z,1000.89
2017-01-10T04:33:00.005Z,1000.87
2017-01-10T04:34:00.014Z,1000.89
2017-01-10T04:35:00.025Z,1000.85
2017-01-10T04:36:00.036Z,1000.77
2017-01-10T04:37:00.046Z,1000.76
2017-01-10T04:38:00.056Z,1000.76
2017-01-10T04:39:00.067Z,1000.72
2017-01-10T04:40:00.077Z,1000.71
2017-01-10T04:41:00.088Z,1000.68
2017-01-10T04:42:00.096Z,1000.68
2017-01-10T04:43:00.109Z,1000.61
2017-01-10T04:44:00.120Z,1000.64
2017-01-10T04:45:00.128Z,1000.63
2017-01-10T04:46:00.143Z,1000.59
2017-01-10T04:47:00.150Z,1000.61
2017-01-10T04:48:00.161Z,1000.59
2017-01-10T04:49:00.171Z,1000.58
2017-01-10T04:50:00.185Z,1000.55
2017-01-10T04:51:00.191Z,1000.59
2017-01-10T04:52:00.203Z,1000.54
2017-01-10T04:53:00.213Z,1000.58
2017-01-10T04:54:00.224Z,1000.57
2017-01-10T04:55:00.235Z,1000.57
2017-01-10T04:56:00.244Z,1000.52
2017-01-10T04:57:00.256Z,1000.56
2017-01-10T04:58:00.266Z,1000.54
2017-01-10T04:59:00.277Z,1000.57
2017-01-10T05:00:00.286Z,1000.56
2017-01-10T05:01:00.296Z,1000.57
2017-01-10T05:02:00.310Z,1000.6
2017-01-10T05:03:00.318Z,1000.57
2017-01-10T05:04:00.332Z,1000.57
2017-01-10T05:05:00.339Z,1000.53
2017-01-10T05:06:00.355Z,1000.55
2017-01-10T05:07:00.359Z,1000.55
2017-01-10T05:08:00.372Z,1000.54
2017-01-10T05:09:00.379Z,1000.6
2017-01-10T05:10:00.390Z,1000.61
2017-01-10T05:11:00.400Z,1000.6
2017-01-10T05:12:00.416Z,1000.56
2017-01-10T05:13:00.421Z,1000.56
2017-01-10T05:14:00.447Z,1000.53
2017-01-10T05:15:00.442Z,1000.46
2017-01-10T05:16:00.452Z,1000.49
2017-01-10T05:17:00.466Z,1000.47
2017-01-10T05:18:00.473Z,1000.48
2017-01-10T05:19:00.482Z,1000.47
2017-01-10T05:20:00.497Z,1000.43
2017-01-10T05:21:00.503Z,1000.44
2017-01-10T05:22:00.515Z,1000.4
2017-01-10T05:23:00.525Z,1000.37
2017-01-10T05:24:00.534Z,1000.4
2017-01-10T05:25:00.544Z,1000.36
2017-01-10T05:26:00.560Z,1000.4
2017-01-10T05:27:00.565Z,1000.38
2017-01-10T05:28:00.578Z,1000.42
2017-01-10T05:29:00.586Z,1000.46
2017-01-10T05:30:00.596Z,1000.48
2017-01-10T05:31:00.608Z,1000.46
2017-01-10T05:32:00.617Z,1000.49
2017-01-10T05:33:00.628Z,1000.52
2017-01-10T05:34:00.640Z,1000.51
2017-01-10T05:35:00.649Z,1000.53
2017-01-10T05:36:00.658Z,1000.56
2017-01-10T05:37:00.668Z,1000.5
2017-01-10T05:38:00.679Z,1000.53
2017-01-10T05:39:00.689Z,1000.47
2017-01-10T05:40:00.698Z,1000.5
2017-01-10T05:41:00.709Z,1000.48
2017-01-10T05:42:00.730Z,1000.52
2017-01-10T05:43:00.731Z,1000.53
2017-01-10T05:44:00.748Z,1000.5
2017-01-10T05:45:00.750Z,1000.55
2017-01-10T05:46:00.759Z,1000.54
2017-01-10T05:47:00.771Z,1000.57
2017-01-10T05:48:00.785Z,1000.56
2017-01-10T05:49:00.792Z,1000.52
2017-01-10T05:50:00.810Z,1000.53
2017-01-10T05:51:00.813Z,1000.54
2017-01-10T05:52:00.822Z,1000.49
2017-01-10T05:53:00.833Z,1000.52
2017-01-10T05:54:00.845Z,1000.51
2017-01-10T05:55:00.853Z,1000.51
2017-01-10T05:56:00.862Z,1000.51
2017-01-10T05:57:00.876Z,1000.5
2017-01-10T05:58:00.890Z,1000.44
2017-01-10T05:59:00.894Z,1000.44
2017-01-10T06:00:00.905Z,1000.41
2017-01-10T06:01:00.913Z,1000.41
2017-01-10T06:02:00.924Z,1000.4
2017-01-10T06:03:00.935Z,1000.41
2017-01-10T06:04:00.952Z,1000.42
2017-01-10T06:05:00.958Z,1000.46
2017-01-10T06:06:00.970Z,1000.42
2017-01-10T06:07:00.975Z,1000.46
2017-01-10T06:08:00.988Z,1000.47
2017-01-10T06:09:00.996Z,1000.47
2017-01-10T06:10:01.015Z,1000.49
2017-01-10T06:11:01.017Z,1000.48
2017-01-10T06:12:01.032Z,1000.44
2017-01-10T06:13:01.038Z,1000.41
2017-01-10T06:14:01.060Z,1000.42
2017-01-10T06:15:01.058Z,1000.42
2017-01-10T06:16:01.069Z,1000.39
2017-01-10T06:17:01.079Z,1000.34
2017-01-10T06:18:01.096Z,1000.33
2017-01-10T06:19:01.100Z,1000.38
2017-01-10T06:20:01.114Z,1000.41
2017-01-10T06:21:01.121Z,1000.37
2017-01-10T06:22:01.138Z,1000.32
2017-01-10T06:23:01.141Z,1000.38
2017-01-10T06:24:01.152Z,1000.38
2017-01-10T06:25:01.161Z,1000.36
2017-01-10T06:26:01.172Z,1000.38
2017-01-10T06:27:01.183Z,1000.37
2017-01-10T06:28:01.201Z,1000.41
2017-01-10T06:29:01.205Z,1000.43
2017-01-10T06:30:01.220Z,1000.42
2017-01-10T06:31:01.223Z,1000.42
2017-01-10T06:32:01.234Z,1000.44
2017-01-10T06:33:01.245Z,1000.45
2017-01-10T06:34:01.264Z,1000.47
2017-01-10T06:35:01.265Z,1000.45
2017-01-10T06:36:01.282Z,1000.42
2017-01-10T06:37:01.287Z,1000.42
2017-01-10T06:38:01.296Z,1000.39
2017-01-10T06:39:01.306Z,1000.39
2017-01-10T06:40:01.317Z,1000.34
2017-01-10T06:41:01.329Z,1000.38
2017-01-10T06:42:01.346Z,1000.42
2017-01-10T06:43:01.348Z,1000.4
2017-01-10T06:44:01.362Z,1000.37
2017-01-10T06:45:01.368Z,1000.38
2017-01-10T06:46:01.379Z,1000.45
2017-01-10T06:47:01.387Z,1000.4
2017-01-10T06:48:01.399Z,1000.46
2017-01-10T06:49:01.410Z,1000.45
2017-01-10T06:50:01.424Z,1000.46
2017-01-10T06:51:01.431Z,1000.45
2017-01-10T06:52:01.441Z,1000.45
2017-01-10T06:53:01.450Z,1000.45
2017-01-10T06:54:01.460Z,1000.46
2017-01-10T06:55:01.471Z,1000.43
2017-01-10T06:56:01.480Z,1000.39
2017-01-10T06:57:01.491Z,1000.45
2017-01-10T06:58:01.502Z,1000.43
2017-01-10T06:59:01.512Z,1000.4
2017-01-10T07:00:01.522Z,1000.45
2017-01-10T07:01:01.534Z,1000.44
2017-01-10T07:02:01.543Z,1000.44
2017-01-10T07:03:01.553Z,1000.44
2017-01-10T07:04:01.562Z,1000.42
2017-01-10T07:05:01.573Z,1000.42
2017-01-10T07:06:01.584Z,1000.4
2017-01-10T07:07:01.594Z,1000.42
2017-01-10T07:08:01.604Z,1000.38
2017-01-10T07:09:01.613Z,1000.43
2017-01-10T07:10:01.625Z,1000.46
2017-01-10T07:11:01.635Z,1000.46
2017-01-10T07:12:01.646Z,1000.43
2017-01-10T07:13:01.656Z,1000.46
2017-01-10T07:14:01.668Z,1000.43
2017-01-10T07:15:01.676Z,1000.49
2017-01-10T07:16:01.686Z,1000.45
2017-01-10T07:17:01.697Z,1000.44
2017-01-10T07:18:01.707Z,1000.4
2017-01-10T07:19:01.717Z,1000.39
2017-01-10T07:20:01.728Z,1000.38
2017-01-10T07:21:01.738Z,1000.39
2017-01-10T07:22:01.748Z,1000.41
2017-01-10T07:23:01.758Z,1000.29
2017-01-10T07:24:01.770Z,1000.36
2017-01-10T07:25:01.782Z,1000.39
2017-01-10T07:26:01.789Z,1000.34
2017-01-10T07:27:01.799Z,1000.37
2017-01-10T07:28:01.810Z,1000.38
2017-01-10T07:29:01.820Z,1000.39
2017-01-10T07:30:01.830Z,1000.3
2017-01-10T07:31:01.839Z,1000.33
2017-01-10T07:32:01.852Z,1000.36
2017-01-10T07:33:01.863Z,1000.3
2017-01-10T07:34:01.872Z,1000.34
2017-01-10T07:35:01.882Z,1000.36
2017-01-10T07:36:01.893Z,1000.36
2017-01-10T07:37:01.902Z,1000.36
2017-01-10T07:38:01.913Z,1000.33
2017-01-10T07:39:01.923Z,1000.38
2017-01-10T07:40:01.935Z,1000.33
2017-01-10T07:41:01.942Z,1000.35
2017-01-10T07:42:01.955Z,1000.38
2017-01-10T07:43:01.967Z,1000.31
2017-01-10T07:44:01.974Z,1000.34
2017-01-10T07:45:01.986Z,1000.35
2017-01-10T07:46:01.996Z,1000.37
2017-01-10T07:47:02.007Z,1000.38
2017-01-10T07:48:02.016Z,1000.41
2017-01-10T07:49:02.025Z,1000.38
2017-01-10T07:50:02.040Z,1000.36
2017-01-10T07:51:02.048Z,1000.38
2017-01-10T07:52:02.060Z,1000.39
2017-01-10T07:53:02.068Z,1000.43
2017-01-10T07:54:02.078Z,1000.45
2017-01-10T07:55:02.088Z,1000.44
2017-01-10T07:56:02.098Z,1000.48
2017-01-10T07:57:02.109Z,1000.48
2017-01-10T07:58:02.120Z,1000.46
2017-01-10T07:59:02.129Z,1000.48
2017-01-10T08:00:02.140Z,1000.5
2017-01-10T08:01:02.151Z,1000.49
2017-01-10T08:02:02.164Z,1000.5
2017-01-10T08:03:02.172Z,1000.43
2017-01-10T08:04:02.183Z,1000.45
2017-01-10T08:05:02.194Z,1000.45
2017-01-10T08:06:02.202Z,1000.45
2017-01-10T08:07:02.214Z,1000.44
2017-01-10T08:08:02.224Z,1000.5
2017-01-10T08:09:02.235Z,1000.49
2017-01-10T08:10:02.244Z,1000.5
2017-01-10T08:11:02.254Z,1000.53
2017-01-10T08:12:02.267Z,1000.51
2017-01-10T08:13:02.274Z,1000.53
2017-01-10T08:14:02.285Z,1000.57
2017-01-10T08:15:02.295Z,1000.59
2017-01-10T08:16:02.306Z,1000.57
2017-01-10T08:17:02.316Z,1000.61
2017-01-10T08:18:02.326Z,1000.65
2017-01-10T08:19:02.336Z,1000.62
2017-01-10T08:20:02.346Z,1000.61
2017-01-10T08:21:02.358Z,1000.65
2017-01-10T08:22:02.367Z,1000.69
2017-01-10T08:23:02.378Z,1000.68
2017-01-10T08:24:02.388Z,1000.68
2017-01-10T08:25:02.399Z,1000.68
2017-01-10T08:26:02.409Z,1000.68
2017-01-10T08:27:02.421Z,1000.68
2017-01-10T08:28:02.429Z,1000.6
2017-01-10T08:29:02.445Z,1000.66
2017-01-10T08:30:02.450Z,1000.67
2017-01-10T08:31:02.461Z,1000.66
2017-01-10T08:32:02.470Z,1000.61
2017-01-10T08:33:02.481Z,1000.62
2017-01-10T08:34:02.492Z,1000.66
2017-01-10T08:35:02.501Z,1000.7
2017-01-10T08:36:02.512Z,1000.66
2017-01-10T08:37:02.523Z,1000.69
2017-01-10T08:38:02.537Z,1000.65
2017-01-10T08:39:02.544Z,1000.65
2017-01-10T08:40:02.552Z,1000.63
2017-01-10T08:41:02.564Z,1000.62
2017-01-10T08:42:02.575Z,1000.63
2017-01-10T08:43:02.587Z,1000.65
2017-01-10T08:44:02.594Z,1000.55
2017-01-10T08:45:02.607Z,1000.58
2017-01-10T08:46:02.615Z,1000.57
2017-01-10T08:47:02.625Z,1000.6
2017-01-10T08:48:02.637Z,1000.59
2017-01-10T08:49:02.648Z,1000.62
2017-01-10T08:50:02.657Z,1000.6
2017-01-10T08:51:02.669Z,1000.56
2017-01-10T08:52:02.679Z,1000.55
2017-01-10T08:53:02.689Z,1000.49
2017-01-10T08:54:02.698Z,1000.51
2017-01-10T08:55:02.709Z,1000.52
2017-01-10T08:56:02.720Z,1000.49
2017-01-10T08:57:02.729Z,1000.56
2017-01-10T08:58:02.740Z,1000.51
2017-01-10T08:59:02.752Z,1000.52
2017-01-10T09:00:02.763Z,1000.53
2017-01-10T09:01:02.771Z,1000.55
2017-01-10T09:02:02.783Z,1000.56
2017-01-10T09:03:02.793Z,1000.57
2017-01-10T09:04:02.808Z,1000.58
2017-01-10T09:05:02.812Z,1000.57
2017-01-10T09:06:02.826Z,1000.5
2017-01-10T09:07:02.835Z,1000.49
2017-01-10T09:08:02.845Z,1000.55
2017-01-10T09:09:02.856Z,1000.51
2017-01-10T09:10:02.869Z,1000.55
2017-01-10T09:11:02.878Z,1000.57
2017-01-10T09:12:02.889Z,1000.52
2017-01-10T09:13:02.897Z,1000.57
2017-01-10T09:14:02.909Z,1000.59
2017-01-10T09:15:02.919Z,1000.53
2017-01-10T09:16:02.929Z,1000.57
2017-01-10T09:17:02.940Z,1000.57
2017-01-10T09:18:02.951Z,1000.6
2017-01-10T09:19:02.961Z,1000.62
2017-01-10T09:20:02.972Z,1000.57
2017-01-10T09:21:02.986Z,1000.69
2017-01-10T09:22:02.993Z,1000.62
2017-01-10T09:23:03.003Z,1000.64
2017-01-10T09:24:03.014Z,1000.64
2017-01-10T09:25:03.024Z,1000.58
2017-01-10T09:26:03.036Z,1000.68
2017-01-10T09:27:03.045Z,1000.61
2017-01-10T09:28:03.056Z,1000.59
2017-01-10T09:29:03.067Z,1000.58
2017-01-10T09:30:03.076Z,1000.61
2017-01-10T09:31:03.137Z,1000.62
2017-01-10T09:32:03.102Z,1000.69
2017-01-10T09:33:03.114Z,1000.69
2017-01-10T09:34:03.121Z,1000.67
2017-01-10T09:35:03.130Z,1000.69
2017-01-10T09:36:03.141Z,1000.74
2017-01-10T09:37:03.152Z,1000.71
2017-01-10T09:38:03.162Z,1000.78
2017-01-10T09:39:03.173Z,1000.69
2017-01-10T09:40:03.183Z,1000.75
2017-01-10T09:41:03.194Z,1000.72
2017-01-10T09:42:03.203Z,1000.73
2017-01-10T09:43:03.215Z,1000.75
2017-01-10T09:44:03.225Z,1000.77
2017-01-10T09:45:03.236Z,1000.76
2017-01-10T09:46:03.247Z,1000.79
2017-01-10T09:47:03.260Z,1000.81
2017-01-10T09:48:03.267Z,1000.75
2017-01-10T09:49:03.278Z,1000.74
2017-01-10T09:50:03.291Z,1000.82
2017-01-10T09:51:03.301Z,1000.84
2017-01-10T09:52:03.322Z,1000.83
2017-01-10T09:53:03.320Z,1000.81
2017-01-10T09:54:03.331Z,1000.81
2017-01-10T09:55:03.341Z,1000.78
2017-01-10T09:56:03.351Z,1000.84
2017-01-10T09:57:03.362Z,1000.87
2017-01-10T09:58:03.372Z,1000.84
2017-01-10T09:59:03.383Z,1000.86
2017-01-10T10:00:03.395Z,1000.89
2017-01-10T10:01:03.404Z,1000.84
2017-01-10T10:02:03.412Z,1000.89
2017-01-10T10:03:03.423Z,1000.9
2017-01-10T10:04:03.434Z,1000.82
2017-01-10T10:05:03.444Z,1000.85
2017-01-10T10:06:03.458Z,1000.81
2017-01-10T10:07:03.467Z,1000.84
2017-01-10T10:08:03.475Z,1000.86
2017-01-10T10:09:03.487Z,1000.83
2017-01-10T10:10:03.497Z,1000.9
2017-01-10T10:11:03.507Z,1000.86
2017-01-10T10:12:03.518Z,1000.83
2017-01-10T10:13:03.527Z,1000.82
2017-01-10T10:14:03.539Z,1000.78
2017-01-10T10:15:03.548Z,1000.85
2017-01-10T10:16:03.559Z,1000.76
2017-01-10T10:17:03.569Z,1000.74
2017-01-10T10:18:03.579Z,1000.73
2017-01-10T10:19:03.594Z,1000.69
2017-01-10T10:20:03.600Z,1000.64
2017-01-10T10:21:03.609Z,1000.6
2017-01-10T10:22:03.622Z,1000.53
2017-01-10T10:23:03.633Z,1000.61
2017-01-10T10:24:03.642Z,1000.48
2017-01-10T10:25:03.652Z,1000.6
2017-01-10T10:26:03.664Z,1000.54
2017-01-10T10:27:03.674Z,1000.54
2017-01-10T10:28:03.685Z,1000.58
2017-01-10T10:29:03.694Z,1000.54
2017-01-10T10:30:03.705Z,1000.55
2017-01-10T10:31:03.716Z,1000.59
2017-01-10T10:32:03.725Z,1000.65
2017-01-10T10:33:03.735Z,1000.63
2017-01-10T10:34:03.753Z,1000.61
2017-01-10T10:35:03.758Z,1000.64
2017-01-10T10:36:03.766Z,1000.58
2017-01-10T10:37:03.777Z,1000.69
2017-01-10T10:38:03.787Z,1000.69
2017-01-10T10:39:03.797Z,1000.57
2017-01-10T10:40:03.807Z,1000.6
2017-01-10T10:41:03.818Z,1000.56
2017-01-10T10:42:03.830Z,1000.61
2017-01-10T10:43:03.839Z,1000.61
2017-01-10T10:44:03.849Z,1000.62
2017-01-10T10:45:03.860Z,1000.66
2017-01-10T10:46:03.872Z,1000.66
2017-01-10T10:47:03.879Z,1000.59
2017-01-10T10:48:03.892Z,1000.67
2017-01-10T10:49:03.902Z,1000.57
2017-01-10T10:50:03.920Z,1000.6
2017-01-10T10:51:03.922Z,1000.58
2017-01-10T10:52:03.933Z,1000.68
2017-01-10T10:53:03.943Z,1000.55
2017-01-10T10:54:03.953Z,1000.59
2017-01-10T10:55:03.963Z,1000.58
2017-01-10T10:56:03.975Z,1000.62
2017-01-10T10:57:03.985Z,1000.57
2017-01-10T10:58:03.995Z,1000.58
2017-01-10T10:59:04.007Z,1000.53
2017-01-10T11:00:04.017Z,1000.55
2017-01-10T11:01:04.027Z,1000.54
2017-01-10T11:02:04.037Z,1000.57
2017-01-10T11:03:04.048Z,1000.55
2017-01-10T11:04:04.059Z,1000.46
2017-01-10T11:05:04.069Z,1000.49
2017-01-10T11:06:04.079Z,1000.44
2017-01-10T11:07:04.090Z,1000.51
2017-01-10T11:08:04.099Z,1000.54
2017-01-10T11:09:04.111Z,1000.51
2017-01-10T11:10:04.121Z,1000.51
2017-01-10T11:11:04.132Z,1000.47
2017-01-10T11:12:04.142Z,1000.41
2017-01-10T11:13:04.155Z,1000.46
2017-01-10T11:14:04.166Z,1000.48
2017-01-10T11:15:04.174Z,1000.5
2017-01-10T11:16:04.185Z,1000.47
2017-01-10T11:17:04.197Z,1000.49
2017-01-10T11:18:04.208Z,1000.45
2017-01-10T11:19:04.219Z,1000.51
2017-01-10T11:20:04.227Z,1000.48
2017-01-10T11:21:04.243Z,1000.48
2017-01-10T11:22:04.250Z,1000.5
2017-01-10T11:23:04.261Z,1000.47
2017-01-10T11:24:04.272Z,1000.47
2017-01-10T11:25:04.284Z,1000.39
2017-01-10T11:26:04.294Z,1000.41
2017-01-10T11:27:04.304Z,1000.45
2017-01-10T11:28:04.315Z,1000.38
2017-01-10T11:29:04.328Z,1000.39
2017-01-10T11:30:04.337Z,1000.38
2017-01-10T11:31:04.347Z,1000.31
2017-01-10T11:32:04.363Z,1000.37
2017-01-10T11:33:04.371Z,1000.39
2017-01-10T11:34:04.382Z,1000.4
2017-01-10T11:35:04.392Z,1000.42
2017-01-10T11:36:04.403Z,1000.4
2017-01-10T11:37:04.416Z,1000.36
2017-01-10T11:38:04.425Z,1000.34
2017-01-10T11:39:04.437Z,1000.3
2017-01-10T11:40:04.448Z,1000.31
2017-01-10T11:41:04.461Z,1000.31
2017-01-10T11:42:04.471Z,1000.34
2017-01-10T11:43:04.481Z,1000.24
2017-01-10T11:44:04.492Z,1000.3
2017-01-10T11:45:04.504Z,1000.36
2017-01-10T11:46:04.514Z,1000.38
2017-01-10T11:47:04.525Z,1000.33
2017-01-10T11:48:04.535Z,1000.3
2017-01-10T11:49:04.549Z,1000.32
2017-01-10T11:50:04.558Z,1000.35
2017-01-10T11:51:04.569Z,1000.33
2017-01-10T11:52:04.580Z,1000.35
2017-01-10T11:53:04.589Z,1000.33
2017-01-10T11:54:04.603Z,1000.4
2017-01-10T11:55:04.615Z,1000.33
2017-01-10T11:56:04.623Z,1000.33
2017-01-10T11:57:04.634Z,1000.31
2017-01-10T11:58:04.648Z,1000.3
2017-01-10T11:59:04.656Z,1000.3
2017-01-10T12:00:04.667Z,1000.32
2017-01-10T12:01:04.682Z,1000.33
2017-01-10T12:02:04.690Z,1000.28
2017-01-10T12:03:04.701Z,1000.26
2017-01-10T12:04:04.711Z,1000.23
2017-01-10T12:05:04.723Z,1000.23
2017-01-10T12:06:04.735Z,1000.21
2017-01-10T12:07:04.744Z,1000.23
2017-01-10T12:08:04.755Z,1000.24
2017-01-10T12:09:04.767Z,1000.21